sensor_id;sensor_type;location;lat;lon;timestamp;temperature;humidity
27534;DHT22;14973;51.460;7.008;2023-09-19T00:01:18;15.60;99.90
27534;DHT22;14973;51.460;7.008;2023-09-19T00:03:45;15.60;99.90
27534;DHT22;14973;51.460;7.008;2023-09-19T00:06:11;15.50;99.90
27534;DHT22;14973;51.460;7.008;2023-09-19T00:08:41;15.40;99.90
27534;DHT22;14973;51.460;7.008;2023-09-19T00:11:10;15.50;99.90
27534;DHT22;14973;51.460;7.008;2023-09-19T00:13:36;15.30;99.90
27534;DHT22;14973;51.460;7.008;2023-09-19T00:16:08;15.40;99.90
27534;DHT22;14973;51.460;7.008;2023-09-19T00:18:36;15.50;99.90
27534;DHT22;14973;51.460;7.008;2023-09-19T00:21:02;15.40;99.90
27534;DHT22;14973;51.460;7.008;2023-09-19T00:23:30;15.30;99.90
27534;DHT22;14973;51.460;7.008;2023-09-19T00:25:59;15.30;99.90
27534;DHT22;14973;51.460;7.008;2023-09-19T00:28:25;15.30;99.90
27534;DHT22;14973;51.460;7.008;2023-09-19T00:30:51;15.20;99.90
27534;DHT22;14973;51.460;7.008;2023-09-19T00:33:17;15.30;99.90
27534;DHT22;14973;51.460;7.008;2023-09-19T00:35:51;15.20;99.90
27534;DHT22;14973;51.460;7.008;2023-09-19T00:38:17;15.20;99.90
27534;DHT22;14973;51.460;7.008;2023-09-19T00:40:47;15.30;99.90
27534;DHT22;14973;51.460;7.008;2023-09-19T00:43:12;15.20;99.90
27534;DHT22;14973;51.460;7.008;2023-09-19T00:45:39;15.20;99.90
27534;DHT22;14973;51.460;7.008;2023-09-19T00:48:08;15.10;99.90
27534;DHT22;14973;51.460;7.008;2023-09-19T00:50:35;15.20;99.90
27534;DHT22;14973;51.460;7.008;2023-09-19T00:53:02;15.10;99.90
27534;DHT22;14973;51.460;7.008;2023-09-19T00:55:34;15.10;99.90
27534;DHT22;14973;51.460;7.008;2023-09-19T00:58:03;15.10;99.90
27534;DHT22;14973;51.460;7.008;2023-09-19T01:00:29;15.10;99.90
27534;DHT22;14973;51.460;7.008;2023-09-19T01:02:55;15.10;99.90
27534;DHT22;14973;51.460;7.008;2023-09-19T01:05:21;15.00;99.90
27534;DHT22;14973;51.460;7.008;2023-09-19T01:07:46;15.00;99.90
27534;DHT22;14973;51.460;7.008;2023-09-19T01:10:17;15.10;99.90
27534;DHT22;14973;51.460;7.008;2023-09-19T01:13:01;15.10;99.90
27534;DHT22;14973;51.460;7.008;2023-09-19T01:20:53;14.90;99.90
27534;DHT22;14973;51.460;7.008;2023-09-19T01:23:26;14.90;99.90
27534;DHT22;14973;51.460;7.008;2023-09-19T01:26:17;14.90;99.90
27534;DHT22;14973;51.460;7.008;2023-09-19T01:31:23;14.90;99.90
27534;DHT22;14973;51.460;7.008;2023-09-19T01:33:59;14.90;99.90
27534;DHT22;14973;51.460;7.008;2023-09-19T01:36:33;14.90;99.90
27534;DHT22;14973;51.460;7.008;2023-09-19T01:39:04;14.90;99.90
27534;DHT22;14973;51.460;7.008;2023-09-19T01:44:36;14.80;99.90
27534;DHT22;14973;51.460;7.008;2023-09-19T01:47:13;14.80;99.90
27534;DHT22;14973;51.460;7.008;2023-09-19T01:49:55;14.80;99.90
27534;DHT22;14973;51.460;7.008;2023-09-19T01:52:28;14.70;99.90
27534;DHT22;14973;51.460;7.008;2023-09-19T01:54:59;14.70;99.90
27534;DHT22;14973;51.460;7.008;2023-09-19T01:57:35;14.70;99.90
27534;DHT22;14973;51.460;7.008;2023-09-19T02:00:07;14.70;99.90
27534;DHT22;14973;51.460;7.008;2023-09-19T02:02:44;14.70;99.90
27534;DHT22;14973;51.460;7.008;2023-09-19T02:05:10;14.70;99.90
27534;DHT22;14973;51.460;7.008;2023-09-19T02:07:38;14.60;99.90
27534;DHT22;14973;51.460;7.008;2023-09-19T02:10:07;14.60;99.90
27534;DHT22;14973;51.460;7.008;2023-09-19T02:12:35;14.60;99.90
27534;DHT22;14973;51.460;7.008;2023-09-19T02:15:01;14.60;99.90
27534;DHT22;14973;51.460;7.008;2023-09-19T02:17:26;14.50;99.90
27534;DHT22;14973;51.460;7.008;2023-09-19T02:19:53;14.50;99.90
27534;DHT22;14973;51.460;7.008;2023-09-19T02:22:19;14.50;99.90
27534;DHT22;14973;51.460;7.008;2023-09-19T02:24:44;14.50;99.90
27534;DHT22;14973;51.460;7.008;2023-09-19T02:27:13;14.50;99.90
27534;DHT22;14973;51.460;7.008;2023-09-19T02:29:44;14.50;99.90
27534;DHT22;14973;51.460;7.008;2023-09-19T02:32:09;14.60;99.90
27534;DHT22;14973;51.460;7.008;2023-09-19T02:34:36;14.50;99.90
27534;DHT22;14973;51.460;7.008;2023-09-19T02:37:05;14.50;99.90
27534;DHT22;14973;51.460;7.008;2023-09-19T02:39:34;14.40;99.90
27534;DHT22;14973;51.460;7.008;2023-09-19T02:42:01;14.50;99.90
27534;DHT22;14973;51.460;7.008;2023-09-19T02:44:27;14.40;99.90
27534;DHT22;14973;51.460;7.008;2023-09-19T02:46:53;14.40;99.90
27534;DHT22;14973;51.460;7.008;2023-09-19T02:49:18;14.40;99.90
27534;DHT22;14973;51.460;7.008;2023-09-19T02:51:44;14.40;99.90
27534;DHT22;14973;51.460;7.008;2023-09-19T02:54:11;14.40;99.90
27534;DHT22;14973;51.460;7.008;2023-09-19T02:56:37;14.40;99.90
27534;DHT22;14973;51.460;7.008;2023-09-19T02:59:03;14.50;99.90
27534;DHT22;14973;51.460;7.008;2023-09-19T03:01:29;14.50;99.90
27534;DHT22;14973;51.460;7.008;2023-09-19T03:03:55;14.50;99.90
27534;DHT22;14973;51.460;7.008;2023-09-19T03:06:21;14.50;99.90
27534;DHT22;14973;51.460;7.008;2023-09-19T03:08:47;14.50;99.90
27534;DHT22;14973;51.460;7.008;2023-09-19T03:11:14;14.50;99.90
27534;DHT22;14973;51.460;7.008;2023-09-19T03:14:12;14.50;99.90
27534;DHT22;14973;51.460;7.008;2023-09-19T03:16:38;14.40;99.90
27534;DHT22;14973;51.460;7.008;2023-09-19T03:19:03;14.50;99.90
27534;DHT22;14973;51.460;7.008;2023-09-19T03:21:29;14.40;99.90
27534;DHT22;14973;51.460;7.008;2023-09-19T03:23:55;14.50;99.90
27534;DHT22;14973;51.460;7.008;2023-09-19T03:26:21;14.40;99.90
27534;DHT22;14973;51.460;7.008;2023-09-19T03:28:47;14.40;99.90
27534;DHT22;14973;51.460;7.008;2023-09-19T03:31:12;14.40;99.90
27534;DHT22;14973;51.460;7.008;2023-09-19T03:33:38;14.40;99.90
27534;DHT22;14973;51.460;7.008;2023-09-19T03:36:04;14.40;99.90
27534;DHT22;14973;51.460;7.008;2023-09-19T03:38:31;14.40;99.90
27534;DHT22;14973;51.460;7.008;2023-09-19T03:40:57;14.40;99.90
27534;DHT22;14973;51.460;7.008;2023-09-19T03:43:22;14.40;99.90
27534;DHT22;14973;51.460;7.008;2023-09-19T03:45:48;14.40;99.90
27534;DHT22;14973;51.460;7.008;2023-09-19T03:48:14;14.20;99.90
27534;DHT22;14973;51.460;7.008;2023-09-19T03:50:40;14.30;99.90
27534;DHT22;14973;51.460;7.008;2023-09-19T03:53:05;14.30;99.90
27534;DHT22;14973;51.460;7.008;2023-09-19T03:55:33;14.20;99.90
27534;DHT22;14973;51.460;7.008;2023-09-19T03:58:01;14.30;99.90
27534;DHT22;14973;51.460;7.008;2023-09-19T04:00:27;14.30;99.90
27534;DHT22;14973;51.460;7.008;2023-09-19T04:02:52;14.20;99.90
27534;DHT22;14973;51.460;7.008;2023-09-19T04:05:18;14.10;99.90
27534;DHT22;14973;51.460;7.008;2023-09-19T04:07:44;14.20;99.90
27534;DHT22;14973;51.460;7.008;2023-09-19T04:10:10;14.10;99.90
27534;DHT22;14973;51.460;7.008;2023-09-19T04:12:40;14.20;99.90
27534;DHT22;14973;51.460;7.008;2023-09-19T04:15:06;14.20;99.90
27534;DHT22;14973;51.460;7.008;2023-09-19T04:17:32;14.20;99.90
27534;DHT22;14973;51.460;7.008;2023-09-19T04:19:59;14.20;99.90
27534;DHT22;14973;51.460;7.008;2023-09-19T04:22:24;14.10;99.90
27534;DHT22;14973;51.460;7.008;2023-09-19T04:24:50;14.20;99.90
27534;DHT22;14973;51.460;7.008;2023-09-19T04:27:15;14.10;99.90
27534;DHT22;14973;51.460;7.008;2023-09-19T04:29:41;14.10;99.90
27534;DHT22;14973;51.460;7.008;2023-09-19T04:32:07;14.20;99.90
27534;DHT22;14973;51.460;7.008;2023-09-19T04:34:36;14.10;99.90
27534;DHT22;14973;51.460;7.008;2023-09-19T04:37:02;14.20;99.90
27534;DHT22;14973;51.460;7.008;2023-09-19T04:39:29;14.10;99.90
27534;DHT22;14973;51.460;7.008;2023-09-19T04:41:55;14.20;99.90
27534;DHT22;14973;51.460;7.008;2023-09-19T04:44:20;14.20;99.90
27534;DHT22;14973;51.460;7.008;2023-09-19T04:46:46;14.20;99.90
27534;DHT22;14973;51.460;7.008;2023-09-19T04:49:12;14.20;99.90
27534;DHT22;14973;51.460;7.008;2023-09-19T04:51:38;14.10;99.90
27534;DHT22;14973;51.460;7.008;2023-09-19T04:54:05;14.10;99.90
27534;DHT22;14973;51.460;7.008;2023-09-19T04:56:30;14.10;99.90
27534;DHT22;14973;51.460;7.008;2023-09-19T04:58:58;14.20;99.90
27534;DHT22;14973;51.460;7.008;2023-09-19T05:01:24;14.10;99.90
27534;DHT22;14973;51.460;7.008;2023-09-19T05:03:50;14.10;99.90
27534;DHT22;14973;51.460;7.008;2023-09-19T05:06:21;14.20;99.90
27534;DHT22;14973;51.460;7.008;2023-09-19T05:08:47;14.20;99.90
27534;DHT22;14973;51.460;7.008;2023-09-19T05:11:21;14.20;99.90
27534;DHT22;14973;51.460;7.008;2023-09-19T05:13:48;14.30;99.90
27534;DHT22;14973;51.460;7.008;2023-09-19T05:16:15;14.20;99.90
27534;DHT22;14973;51.460;7.008;2023-09-19T05:18:41;14.20;99.90
27534;DHT22;14973;51.460;7.008;2023-09-19T05:21:07;14.20;99.90
27534;DHT22;14973;51.460;7.008;2023-09-19T05:23:33;14.20;99.90
27534;DHT22;14973;51.460;7.008;2023-09-19T05:25:59;14.20;99.90
27534;DHT22;14973;51.460;7.008;2023-09-19T05:28:26;14.20;99.90
27534;DHT22;14973;51.460;7.008;2023-09-19T05:30:52;14.30;99.90
27534;DHT22;14973;51.460;7.008;2023-09-19T05:33:18;14.30;99.90
27534;DHT22;14973;51.460;7.008;2023-09-19T05:35:44;14.30;99.90
27534;DHT22;14973;51.460;7.008;2023-09-19T05:38:11;14.30;99.90
27534;DHT22;14973;51.460;7.008;2023-09-19T05:40:38;14.30;99.90
27534;DHT22;14973;51.460;7.008;2023-09-19T05:43:06;14.40;99.90
27534;DHT22;14973;51.460;7.008;2023-09-19T05:45:31;14.40;99.90
27534;DHT22;14973;51.460;7.008;2023-09-19T05:48:10;14.50;99.90
27534;DHT22;14973;51.460;7.008;2023-09-19T05:50:37;14.50;99.90
27534;DHT22;14973;51.460;7.008;2023-09-19T05:53:03;14.60;99.90
27534;DHT22;14973;51.460;7.008;2023-09-19T05:55:30;14.70;99.90
27534;DHT22;14973;51.460;7.008;2023-09-19T05:57:55;14.70;99.90
27534;DHT22;14973;51.460;7.008;2023-09-19T06:00:22;14.80;99.90
27534;DHT22;14973;51.460;7.008;2023-09-19T06:02:56;14.90;99.90
27534;DHT22;14973;51.460;7.008;2023-09-19T06:05:25;15.00;99.90
27534;DHT22;14973;51.460;7.008;2023-09-19T06:07:52;14.90;99.90
27534;DHT22;14973;51.460;7.008;2023-09-19T06:10:18;14.90;99.90
27534;DHT22;14973;51.460;7.008;2023-09-19T06:12:46;15.00;99.90
27534;DHT22;14973;51.460;7.008;2023-09-19T06:15:15;15.00;99.90
27534;DHT22;14973;51.460;7.008;2023-09-19T06:17:48;15.00;98.00
27534;DHT22;14973;51.460;7.008;2023-09-19T06:20:14;15.00;95.90
27534;DHT22;14973;51.460;7.008;2023-09-19T06:22:41;15.20;94.20
27534;DHT22;14973;51.460;7.008;2023-09-19T06:25:08;15.20;93.70
27534;DHT22;14973;51.460;7.008;2023-09-19T06:27:37;15.30;91.60
27534;DHT22;14973;51.460;7.008;2023-09-19T06:30:02;15.30;91.20
27534;DHT22;14973;51.460;7.008;2023-09-19T06:32:28;15.30;86.50
27534;DHT22;14973;51.460;7.008;2023-09-19T06:34:54;15.30;82.20
27534;DHT22;14973;51.460;7.008;2023-09-19T06:37:20;15.40;81.60
27534;DHT22;14973;51.460;7.008;2023-09-19T06:39:47;15.40;79.20
27534;DHT22;14973;51.460;7.008;2023-09-19T06:42:15;15.50;76.70
27534;DHT22;14973;51.460;7.008;2023-09-19T06:44:42;15.60;73.90
27534;DHT22;14973;51.460;7.008;2023-09-19T06:47:08;15.50;69.70
27534;DHT22;14973;51.460;7.008;2023-09-19T06:49:35;15.70;69.30
27534;DHT22;14973;51.460;7.008;2023-09-19T06:52:01;15.80;62.00
27534;DHT22;14973;51.460;7.008;2023-09-19T06:54:28;15.80;62.00
27534;DHT22;14973;51.460;7.008;2023-09-19T06:56:59;15.80;62.20
27534;DHT22;14973;51.460;7.008;2023-09-19T06:59:25;15.90;58.10
27534;DHT22;14973;51.460;7.008;2023-09-19T07:01:50;15.90;56.30
27534;DHT22;14973;51.460;7.008;2023-09-19T07:04:17;16.20;49.40
27534;DHT22;14973;51.460;7.008;2023-09-19T07:06:51;16.30;47.30
27534;DHT22;14973;51.460;7.008;2023-09-19T07:09:17;16.40;46.70
27534;DHT22;14973;51.460;7.008;2023-09-19T07:11:45;16.40;43.80
27534;DHT22;14973;51.460;7.008;2023-09-19T07:14:10;16.50;43.40
27534;DHT22;14973;51.460;7.008;2023-09-19T07:16:38;16.70;37.50
27534;DHT22;14973;51.460;7.008;2023-09-19T07:19:05;16.70;35.90
27534;DHT22;14973;51.460;7.008;2023-09-19T07:21:31;16.80;34.30
27534;DHT22;14973;51.460;7.008;2023-09-19T07:24:01;17.00;27.30
27534;DHT22;14973;51.460;7.008;2023-09-19T07:26:27;17.00;50.40
27534;DHT22;14973;51.460;7.008;2023-09-19T07:28:53;17.10;1.00
27534;DHT22;14973;51.460;7.008;2023-09-19T07:31:20;17.20;99.90
27534;DHT22;14973;51.460;7.008;2023-09-19T07:33:48;17.30;99.90
27534;DHT22;14973;51.460;7.008;2023-09-19T07:36:14;17.30;1.00
27534;DHT22;14973;51.460;7.008;2023-09-19T07:38:40;17.50;7.70
27534;DHT22;14973;51.460;7.008;2023-09-19T07:41:07;17.60;1.00
27534;DHT22;14973;51.460;7.008;2023-09-19T07:43:37;17.80;99.90
27534;DHT22;14973;51.460;7.008;2023-09-19T07:46:07;17.90;99.90
27534;DHT22;14973;51.460;7.008;2023-09-19T07:48:37;18.00;1.00
27534;DHT22;14973;51.460;7.008;2023-09-19T07:51:05;18.20;99.90
27534;DHT22;14973;51.460;7.008;2023-09-19T07:53:32;18.40;1.00
27534;DHT22;14973;51.460;7.008;2023-09-19T07:56:07;18.50;1.00
27534;DHT22;14973;51.460;7.008;2023-09-19T07:58:33;18.40;1.00
27534;DHT22;14973;51.460;7.008;2023-09-19T08:01:06;18.40;1.00
27534;DHT22;14973;51.460;7.008;2023-09-19T08:03:35;18.40;1.00
27534;DHT22;14973;51.460;7.008;2023-09-19T08:06:06;18.70;1.00
27534;DHT22;14973;51.460;7.008;2023-09-19T08:08:32;18.80;66.50
27534;DHT22;14973;51.460;7.008;2023-09-19T08:10:59;18.80;15.60
27534;DHT22;14973;51.460;7.008;2023-09-19T08:13:26;19.00;1.00
27534;DHT22;14973;51.460;7.008;2023-09-19T08:15:52;19.40;99.90
27534;DHT22;14973;51.460;7.008;2023-09-19T08:18:21;19.40;99.90
27534;DHT22;14973;51.460;7.008;2023-09-19T08:20:52;19.80;99.90
27534;DHT22;14973;51.460;7.008;2023-09-19T08:23:18;19.70;99.90
27534;DHT22;14973;51.460;7.008;2023-09-19T08:25:45;19.70;99.90
27534;DHT22;14973;51.460;7.008;2023-09-19T08:28:11;19.60;99.90
27534;DHT22;14973;51.460;7.008;2023-09-19T08:30:47;19.70;99.90
27534;DHT22;14973;51.460;7.008;2023-09-19T08:33:12;20.30;1.00
27534;DHT22;14973;51.460;7.008;2023-09-19T08:35:40;20.50;1.00
27534;DHT22;14973;51.460;7.008;2023-09-19T08:38:09;20.80;1.00
27534;DHT22;14973;51.460;7.008;2023-09-19T08:40:39;21.40;1.00
27534;DHT22;14973;51.460;7.008;2023-09-19T08:43:06;22.10;99.90
27534;DHT22;14973;51.460;7.008;2023-09-19T08:45:33;22.20;99.90
27534;DHT22;14973;51.460;7.008;2023-09-19T08:48:26;22.20;99.90
27534;DHT22;14973;51.460;7.008;2023-09-19T08:52:04;22.50;99.90
27534;DHT22;14973;51.460;7.008;2023-09-19T08:54:06;22.10;99.90
27534;DHT22;14973;51.460;7.008;2023-09-19T08:56:33;22.20;99.90
27534;DHT22;14973;51.460;7.008;2023-09-19T08:59:06;22.50;99.90
27534;DHT22;14973;51.460;7.008;2023-09-19T09:01:35;22.90;99.90
27534;DHT22;14973;51.460;7.008;2023-09-19T09:04:02;23.10;97.60
27534;DHT22;14973;51.460;7.008;2023-09-19T09:06:28;23.00;70.80
27534;DHT22;14973;51.460;7.008;2023-09-19T09:08:54;23.30;54.30
27534;DHT22;14973;51.460;7.008;2023-09-19T09:11:20;23.70;10.80
27534;DHT22;14973;51.460;7.008;2023-09-19T09:13:47;24.10;1.00
27534;DHT22;14973;51.460;7.008;2023-09-19T09:16:14;23.90;1.00
27534;DHT22;14973;51.460;7.008;2023-09-19T09:18:43;24.20;1.00
27534;DHT22;14973;51.460;7.008;2023-09-19T09:21:10;24.80;1.00
27534;DHT22;14973;51.460;7.008;2023-09-19T09:23:35;24.70;1.00
27534;DHT22;14973;51.460;7.008;2023-09-19T09:26:01;24.80;1.00
27534;DHT22;14973;51.460;7.008;2023-09-19T09:28:32;24.90;1.00
27534;DHT22;14973;51.460;7.008;2023-09-19T09:30:59;24.30;1.00
27534;DHT22;14973;51.460;7.008;2023-09-19T09:33:26;24.00;1.00
27534;DHT22;14973;51.460;7.008;2023-09-19T09:36:00;23.90;1.00
27534;DHT22;14973;51.460;7.008;2023-09-19T09:38:49;24.20;1.00
27534;DHT22;14973;51.460;7.008;2023-09-19T09:41:16;23.80;1.00
27534;DHT22;14973;51.460;7.008;2023-09-19T09:43:53;23.30;1.00
27534;DHT22;14973;51.460;7.008;2023-09-19T09:46:24;23.00;1.00
27534;DHT22;14973;51.460;7.008;2023-09-19T09:49:03;23.10;1.00
27534;DHT22;14973;51.460;7.008;2023-09-19T09:52:05;22.90;1.00
27534;DHT22;14973;51.460;7.008;2023-09-19T09:55:02;22.30;1.00
27534;DHT22;14973;51.460;7.008;2023-09-19T09:57:31;21.70;1.00
27534;DHT22;14973;51.460;7.008;2023-09-19T09:59:57;21.50;1.00
27534;DHT22;14973;51.460;7.008;2023-09-19T10:02:38;21.50;1.00
27534;DHT22;14973;51.460;7.008;2023-09-19T10:05:18;21.70;1.00
27534;DHT22;14973;51.460;7.008;2023-09-19T10:07:50;21.50;1.00
27534;DHT22;14973;51.460;7.008;2023-09-19T10:10:33;21.50;1.00
27534;DHT22;14973;51.460;7.008;2023-09-19T10:13:12;21.40;1.00
27534;DHT22;14973;51.460;7.008;2023-09-19T10:15:43;21.20;1.00
27534;DHT22;14973;51.460;7.008;2023-09-19T10:18:20;21.20;1.00
27534;DHT22;14973;51.460;7.008;2023-09-19T10:20:47;21.20;1.00
27534;DHT22;14973;51.460;7.008;2023-09-19T10:23:14;21.10;1.00
27534;DHT22;14973;51.460;7.008;2023-09-19T10:25:48;21.10;1.00
27534;DHT22;14973;51.460;7.008;2023-09-19T10:28:15;21.00;1.00
27534;DHT22;14973;51.460;7.008;2023-09-19T10:30:45;20.90;1.00
27534;DHT22;14973;51.460;7.008;2023-09-19T10:33:14;21.00;1.00
27534;DHT22;14973;51.460;7.008;2023-09-19T10:35:45;21.20;1.00
27534;DHT22;14973;51.460;7.008;2023-09-19T10:38:17;21.10;1.00
27534;DHT22;14973;51.460;7.008;2023-09-19T10:40:44;21.40;1.00
27534;DHT22;14973;51.460;7.008;2023-09-19T10:43:16;21.80;1.00
27534;DHT22;14973;51.460;7.008;2023-09-19T10:45:47;21.80;1.00
27534;DHT22;14973;51.460;7.008;2023-09-19T10:48:18;21.90;1.00
27534;DHT22;14973;51.460;7.008;2023-09-19T10:50:53;21.90;1.00
27534;DHT22;14973;51.460;7.008;2023-09-19T10:53:21;21.70;1.00
27534;DHT22;14973;51.460;7.008;2023-09-19T10:55:52;21.60;1.00
27534;DHT22;14973;51.460;7.008;2023-09-19T10:58:45;22.00;1.00
27534;DHT22;14973;51.460;7.008;2023-09-19T11:01:11;21.90;1.00
27534;DHT22;14973;51.460;7.008;2023-09-19T11:03:38;22.00;1.00
27534;DHT22;14973;51.460;7.008;2023-09-19T11:06:16;22.00;1.00
27534;DHT22;14973;51.460;7.008;2023-09-19T11:08:56;21.90;1.00
27534;DHT22;14973;51.460;7.008;2023-09-19T11:11:46;21.80;1.00
27534;DHT22;14973;51.460;7.008;2023-09-19T11:30:39;21.50;1.00
27534;DHT22;14973;51.460;7.008;2023-09-19T11:33:19;21.60;1.00
27534;DHT22;14973;51.460;7.008;2023-09-19T11:46:52;21.50;1.00
27534;DHT22;14973;51.460;7.008;2023-09-19T11:49:23;21.70;1.00
27534;DHT22;14973;51.460;7.008;2023-09-19T11:51:52;21.60;1.00
27534;DHT22;14973;51.460;7.008;2023-09-19T11:54:18;21.50;1.00
27534;DHT22;14973;51.460;7.008;2023-09-19T11:56:48;21.50;1.00
27534;DHT22;14973;51.460;7.008;2023-09-19T11:59:22;21.50;1.00
27534;DHT22;14973;51.460;7.008;2023-09-19T12:02:04;21.50;1.00
27534;DHT22;14973;51.460;7.008;2023-09-19T12:04:38;21.50;1.00
27534;DHT22;14973;51.460;7.008;2023-09-19T12:07:11;21.40;1.00
27534;DHT22;14973;51.460;7.008;2023-09-19T12:09:48;21.30;1.00
27534;DHT22;14973;51.460;7.008;2023-09-19T12:12:22;21.40;1.00
27534;DHT22;14973;51.460;7.008;2023-09-19T12:14:49;21.40;1.00
27534;DHT22;14973;51.460;7.008;2023-09-19T12:17:18;21.30;1.00
27534;DHT22;14973;51.460;7.008;2023-09-19T12:19:56;21.30;1.00
27534;DHT22;14973;51.460;7.008;2023-09-19T12:22:22;21.20;1.00
27534;DHT22;14973;51.460;7.008;2023-09-19T12:24:48;21.20;1.00
27534;DHT22;14973;51.460;7.008;2023-09-19T12:27:14;21.10;1.00
27534;DHT22;14973;51.460;7.008;2023-09-19T12:29:47;21.20;1.00
27534;DHT22;14973;51.460;7.008;2023-09-19T12:32:14;21.30;1.00
27534;DHT22;14973;51.460;7.008;2023-09-19T12:34:49;21.40;1.00
27534;DHT22;14973;51.460;7.008;2023-09-19T12:37:15;21.30;1.00
27534;DHT22;14973;51.460;7.008;2023-09-19T12:39:46;21.40;1.00
27534;DHT22;14973;51.460;7.008;2023-09-19T12:42:15;21.30;1.00
27534;DHT22;14973;51.460;7.008;2023-09-19T12:44:42;21.30;1.00
27534;DHT22;14973;51.460;7.008;2023-09-19T12:47:16;21.30;1.00
27534;DHT22;14973;51.460;7.008;2023-09-19T12:52:43;21.40;1.00
27534;DHT22;14973;51.460;7.008;2023-09-19T12:55:29;21.40;1.00
27534;DHT22;14973;51.460;7.008;2023-09-19T12:58:07;21.40;1.00
27534;DHT22;14973;51.460;7.008;2023-09-19T13:00:41;21.30;1.00
27534;DHT22;14973;51.460;7.008;2023-09-19T13:03:18;21.20;1.00
27534;DHT22;14973;51.460;7.008;2023-09-19T13:05:48;21.30;1.00
27534;DHT22;14973;51.460;7.008;2023-09-19T13:08:21;21.20;1.00
27534;DHT22;14973;51.460;7.008;2023-09-19T13:11:19;21.20;1.00
27534;DHT22;14973;51.460;7.008;2023-09-19T13:14:13;21.30;1.00
27534;DHT22;14973;51.460;7.008;2023-09-19T13:16:53;21.30;1.00
27534;DHT22;14973;51.460;7.008;2023-09-19T13:19:43;21.20;1.00
27534;DHT22;14973;51.460;7.008;2023-09-19T13:22:45;21.10;1.00
27534;DHT22;14973;51.460;7.008;2023-09-19T13:25:17;21.10;1.00
27534;DHT22;14973;51.460;7.008;2023-09-19T13:27:45;21.10;1.00
27534;DHT22;14973;51.460;7.008;2023-09-19T13:30:12;21.00;1.00
27534;DHT22;14973;51.460;7.008;2023-09-19T13:32:38;21.00;1.00
27534;DHT22;14973;51.460;7.008;2023-09-19T13:35:06;21.00;1.00
27534;DHT22;14973;51.460;7.008;2023-09-19T13:37:34;21.00;1.00
27534;DHT22;14973;51.460;7.008;2023-09-19T13:40:07;21.00;1.00
27534;DHT22;14973;51.460;7.008;2023-09-19T13:42:33;20.90;1.00
27534;DHT22;14973;51.460;7.008;2023-09-19T13:44:59;20.90;1.00
27534;DHT22;14973;51.460;7.008;2023-09-19T13:47:24;21.00;1.00
27534;DHT22;14973;51.460;7.008;2023-09-19T13:49:52;21.00;1.00
27534;DHT22;14973;51.460;7.008;2023-09-19T13:52:21;21.00;1.00
27534;DHT22;14973;51.460;7.008;2023-09-19T13:54:49;21.00;1.00
27534;DHT22;14973;51.460;7.008;2023-09-19T13:57:15;21.10;1.00
27534;DHT22;14973;51.460;7.008;2023-09-19T13:59:42;21.20;1.00
27534;DHT22;14973;51.460;7.008;2023-09-19T14:02:07;21.10;1.00
27534;DHT22;14973;51.460;7.008;2023-09-19T14:04:33;21.20;1.00
27534;DHT22;14973;51.460;7.008;2023-09-19T14:07:00;21.10;1.00
27534;DHT22;14973;51.460;7.008;2023-09-19T14:09:26;21.00;1.00
27534;DHT22;14973;51.460;7.008;2023-09-19T14:11:52;21.10;1.00
27534;DHT22;14973;51.460;7.008;2023-09-19T14:14:18;21.00;1.00
27534;DHT22;14973;51.460;7.008;2023-09-19T14:16:44;21.10;1.00
27534;DHT22;14973;51.460;7.008;2023-09-19T14:19:10;21.30;1.00
27534;DHT22;14973;51.460;7.008;2023-09-19T14:21:36;21.20;1.00
27534;DHT22;14973;51.460;7.008;2023-09-19T14:24:03;21.20;1.00
27534;DHT22;14973;51.460;7.008;2023-09-19T14:26:29;21.20;1.00
27534;DHT22;14973;51.460;7.008;2023-09-19T14:28:54;21.00;1.00
27534;DHT22;14973;51.460;7.008;2023-09-19T14:31:20;21.00;1.00
27534;DHT22;14973;51.460;7.008;2023-09-19T14:33:52;20.80;1.00
27534;DHT22;14973;51.460;7.008;2023-09-19T14:36:18;20.70;1.00
27534;DHT22;14973;51.460;7.008;2023-09-19T14:38:44;20.70;1.00
27534;DHT22;14973;51.460;7.008;2023-09-19T14:41:10;20.70;1.00
27534;DHT22;14973;51.460;7.008;2023-09-19T14:43:35;20.60;1.00
27534;DHT22;14973;51.460;7.008;2023-09-19T14:46:07;20.60;1.00
27534;DHT22;14973;51.460;7.008;2023-09-19T14:48:33;20.70;1.00
27534;DHT22;14973;51.460;7.008;2023-09-19T14:51:06;20.70;1.00
27534;DHT22;14973;51.460;7.008;2023-09-19T14:53:35;20.70;1.00
27534;DHT22;14973;51.460;7.008;2023-09-19T14:56:04;20.60;1.00
27534;DHT22;14973;51.460;7.008;2023-09-19T14:58:30;20.70;1.00
27534;DHT22;14973;51.460;7.008;2023-09-19T15:01:10;20.60;1.00
27534;DHT22;14973;51.460;7.008;2023-09-19T15:03:36;20.50;1.00
27534;DHT22;14973;51.460;7.008;2023-09-19T15:06:03;20.40;1.00
27534;DHT22;14973;51.460;7.008;2023-09-19T15:08:32;20.50;1.00
27534;DHT22;14973;51.460;7.008;2023-09-19T15:11:00;20.30;1.00
27534;DHT22;14973;51.460;7.008;2023-09-19T15:13:29;20.30;1.00
27534;DHT22;14973;51.460;7.008;2023-09-19T15:15:59;20.20;1.00
27534;DHT22;14973;51.460;7.008;2023-09-19T15:18:26;20.20;1.00
27534;DHT22;14973;51.460;7.008;2023-09-19T15:20:52;20.10;1.00
27534;DHT22;14973;51.460;7.008;2023-09-19T15:23:18;20.00;1.00
27534;DHT22;14973;51.460;7.008;2023-09-19T15:25:51;20.00;1.00
27534;DHT22;14973;51.460;7.008;2023-09-19T15:28:17;20.00;1.00
27534;DHT22;14973;51.460;7.008;2023-09-19T15:30:43;20.00;1.00
27534;DHT22;14973;51.460;7.008;2023-09-19T15:33:08;20.00;1.00
27534;DHT22;14973;51.460;7.008;2023-09-19T15:35:34;20.00;1.00
27534;DHT22;14973;51.460;7.008;2023-09-19T15:38:02;20.10;1.00
27534;DHT22;14973;51.460;7.008;2023-09-19T15:40:28;20.10;1.00
27534;DHT22;14973;51.460;7.008;2023-09-19T15:42:54;20.20;1.00
27534;DHT22;14973;51.460;7.008;2023-09-19T15:45:21;20.30;1.00
27534;DHT22;14973;51.460;7.008;2023-09-19T15:47:47;20.30;1.00
27534;DHT22;14973;51.460;7.008;2023-09-19T15:50:12;20.40;1.00
27534;DHT22;14973;51.460;7.008;2023-09-19T15:52:41;20.40;1.00
27534;DHT22;14973;51.460;7.008;2023-09-19T15:55:08;20.40;1.00
27534;DHT22;14973;51.460;7.008;2023-09-19T15:57:37;20.40;1.00
27534;DHT22;14973;51.460;7.008;2023-09-19T16:00:03;20.40;1.00
27534;DHT22;14973;51.460;7.008;2023-09-19T16:02:35;20.30;1.00
27534;DHT22;14973;51.460;7.008;2023-09-19T16:05:01;20.20;1.00
27534;DHT22;14973;51.460;7.008;2023-09-19T16:07:32;20.00;1.00
27534;DHT22;14973;51.460;7.008;2023-09-19T16:09:58;19.90;1.00
27534;DHT22;14973;51.460;7.008;2023-09-19T16:12:25;19.80;1.00
27534;DHT22;14973;51.460;7.008;2023-09-19T16:14:51;19.70;1.00
27534;DHT22;14973;51.460;7.008;2023-09-19T16:17:17;19.60;1.00
27534;DHT22;14973;51.460;7.008;2023-09-19T16:19:43;19.60;1.00
27534;DHT22;14973;51.460;7.008;2023-09-19T16:22:09;19.50;1.00
27534;DHT22;14973;51.460;7.008;2023-09-19T16:24:35;19.50;1.00
27534;DHT22;14973;51.460;7.008;2023-09-19T16:27:00;19.50;1.00
27534;DHT22;14973;51.460;7.008;2023-09-19T16:29:26;19.60;1.00
27534;DHT22;14973;51.460;7.008;2023-09-19T16:31:52;19.60;1.00